Time;durP1;ratioP1;P1;durP2;ratioP2;P2;SDS_P1;SDS_P2;PMS_P1;PMS_P2;Temp;Humidity;BMP_temperature;BMP_pressure;BME280_temperature;BME280_humidity;BME280_pressure;Samples;Min_cycle;Max_cycle;Signal;HPM_P1;HPM_P2
2021/05/06 00:32:57;;;;;;;5.63;3.35;;;;;;;;;;5031439;28;20056;-42
2021/05/06 00:35:28;;;;;;;5.80;3.03;;;;;;;;;;5031343;28;20045;-42
2021/05/06 00:38:01;;;;;;;5.15;3.58;;;;;;;;;;5029891;28;20132;-41
2021/05/06 00:41:06;;;;;;;5.95;3.13;;;;;;;;;;5027191;28;20038;-42
2021/05/06 01:04:28;;;;;;;5.18;3.25;;;;;;;;;;5030264;28;20040;-42
2021/05/06 01:09:24;;;;;;;5.78;2.70;;;;;;;;;;5030353;28;20033;-42
2021/05/06 01:14:17;;;;;;;5.35;2.78;;;;;;;;;;5028585;28;20034;-41
2021/05/06 01:16:44;;;;;;;2.67;2.10;;;;;;;;;;5028932;28;20561;-41
2021/05/06 01:19:10;;;;;;;5.70;2.15;;;;;;;;;;5028675;28;20120;-42
2021/05/06 01:21:36;;;;;;;5.25;2.67;;;;;;;;;;5030961;28;20041;-42
2021/05/06 01:24:03;;;;;;;4.15;2.40;;;;;;;;;;5028529;28;20056;-43
2021/05/06 01:26:35;;;;;;;2.75;2.28;;;;;;;;;;5029999;28;20048;-42
2021/05/06 01:29:05;;;;;;;3.83;2.90;;;;;;;;;;5030023;28;20052;-42
2021/05/06 01:31:35;;;;;;;2.90;2.45;;;;;;;;;;5028116;28;20052;-42
2021/05/06 01:34:11;;;;;;;6.28;3.03;;;;;;;;;;5028847;28;20441;-42
2021/05/06 01:36:45;;;;;;;6.97;4.07;;;;;;;;;;5028564;28;20068;-42
2021/05/06 01:42:17;;;;;;;4.05;3.50;;;;;;;;;;5049415;28;20057;-43
2021/05/06 01:47:25;;;;;;;3.17;2.53;;;;;;;;;;5030360;28;20053;-41
2021/05/06 01:58:16;;;;;;;3.15;2.92;;;;;;;;;;5029332;28;20041;-43
2021/05/06 02:00:49;;;;;;;4.40;2.88;;;;;;;;;;5028301;28;20037;-41
2021/05/06 02:03:15;;;;;;;;;;;;;;;;;;5025145;28;20061;-41
2021/05/06 02:05:41;;;;;;;7.45;3.45;;;;;;;;;;5026220;28;19932;-41
2021/05/06 02:08:08;;;;;;;4.63;3.08;;;;;;;;;;5027909;28;20525;-42
2021/05/06 02:10:34;;;;;;;5.32;2.92;;;;;;;;;;5028101;28;20038;-41
2021/05/06 02:13:00;;;;;;;4.38;4.03;;;;;;;;;;5026547;28;20044;-42
2021/05/06 02:15:30;;;;;;;3.65;3.33;;;;;;;;;;5029490;28;20040;-44
2021/05/06 02:17:57;;;;;;;4.93;3.35;;;;;;;;;;5024233;28;20037;-41
2021/05/06 02:20:24;;;;;;;3.58;3.28;;;;;;;;;;5025056;28;20498;-41
2021/05/06 02:22:51;;;;;;;4.15;3.25;;;;;;;;;;5025517;28;20046;-41
2021/05/06 02:25:18;;;;;;;4.45;4.15;;;;;;;;;;5020312;28;20041;-42
2021/05/06 02:27:45;;;;;;;5.07;4.88;;;;;;;;;;5030000;28;20135;-43
2021/05/06 02:30:11;;;;;;;4.88;4.43;;;;;;;;;;5025563;28;20045;-42
2021/05/06 02:32:38;;;;;;;5.00;4.20;;;;;;;;;;5025365;28;20061;-43
2021/05/06 02:35:05;;;;;;;5.43;3.88;;;;;;;;;;5026891;28;20037;-41
2021/05/06 02:37:32;;;;;;;4.97;4.75;;;;;;;;;;5026975;28;20697;-42
2021/05/06 02:39:58;;;;;;;6.72;4.15;;;;;;;;;;5028142;28;20140;-43
2021/05/06 02:42:24;;;;;;;4.15;3.67;;;;;;;;;;5027930;28;20045;-41
2021/05/06 02:44:50;;;;;;;6.85;4.15;;;;;;;;;;5028927;28;20041;-41
2021/05/06 02:47:17;;;;;;;4.35;3.95;;;;;;;;;;5027332;28;20581;-42
2021/05/06 02:49:45;;;;;;;3.33;3.05;;;;;;;;;;5029661;28;20041;-42
2021/05/06 02:52:17;;;;;;;6.28;3.70;;;;;;;;;;5020042;28;20044;-41
2021/05/06 02:54:49;;;;;;;5.00;3.80;;;;;;;;;;5017982;28;20125;-43
2021/05/06 02:57:23;;;;;;;4.07;3.72;;;;;;;;;;5028820;28;20029;-43
2021/05/06 03:02:49;;;;;;;3.70;3.35;;;;;;;;;;5015074;28;20042;-44
2021/05/06 03:05:18;;;;;;;4.22;3.88;;;;;;;;;;5029202;28;20042;-42
2021/05/06 03:07:56;;;;;;;4.22;3.92;;;;;;;;;;5026832;28;20057;-42
2021/05/06 03:23:39;;;;;;;4.18;3.97;;;;;;;;;;5023572;28;20083;-42
2021/05/06 03:26:05;;;;;;;7.50;2.88;;;;;;;;;;5028016;28;20426;-42
2021/05/06 03:28:39;;;;;;;3.85;3.60;;;;;;;;;;5027280;28;20049;-44
2021/05/06 03:42:23;;;;;;;5.50;4.90;;;;;;;;;;5022323;28;20120;-44
2021/05/06 04:31:11;;;;;;;4.60;2.70;;;;;;;;;;5023598;28;20382;-42
2021/05/06 04:36:53;;;;;;;4.45;3.10;;;;;;;;;;5029035;28;20440;-43
2021/05/06 04:39:27;;;;;;;4.80;3.03;;;;;;;;;;5029371;28;20563;-41
2021/05/06 04:43:04;;;;;;;6.63;3.05;;;;;;;;;;5030764;28;20045;-43
2021/05/06 04:53:29;;;;;;;6.35;3.17;;;;;;;;;;5019557;28;20033;-45
2021/05/06 04:53:35;;;;;;;5.82;3.95;;;;;;;;;;5028913;28;20045;-43
2021/05/06 04:59:23;;;;;;;7.10;3.78;;;;;;;;;;5015762;28;20056;-43
2021/05/06 05:09:44;;;;;;;8.75;3.33;;;;;;;;;;5029336;28;20042;-44
2021/05/06 05:20:10;;;;;;;8.00;3.53;;;;;;;;;;5024875;28;20126;-44
2021/05/06 05:25:32;;;;;;;3.22;2.70;;;;;;;;;;5025588;28;20033;-43
2021/05/06 05:28:03;;;;;;;7.55;3.22;;;;;;;;;;5023815;28;20049;-45
2021/05/06 05:30:30;;;;;;;4.32;3.13;;;;;;;;;;5026881;28;20034;-44
2021/05/06 05:33:02;;;;;;;2.17;1.92;;;;;;;;;;5022006;28;20033;-44
2021/05/06 05:38:06;;;;;;;4.05;3.05;;;;;;;;;;5027495;28;20522;-44
2021/05/06 05:56:26;;;;;;;2.95;2.17;;;;;;;;;;5028699;28;20045;-43
2021/05/06 05:58:53;;;;;;;4.63;2.97;;;;;;;;;;5026068;28;20038;-44
2021/05/06 06:01:19;;;;;;;7.45;3.80;;;;;;;;;;5024721;28;20068;-43
2021/05/06 06:03:46;;;;;;;4.30;2.80;;;;;;;;;;5028006;28;20045;-44
2021/05/06 06:06:12;;;;;;;7.60;4.60;;;;;;;;;;5028191;28;20037;-42
2021/05/06 06:08:38;;;;;;;3.85;2.55;;;;;;;;;;5015584;28;20054;-46
2021/05/06 06:11:05;;;;;;;4.03;2.38;;;;;;;;;;5022726;28;20036;-43
2021/05/06 06:13:32;;;;;;;5.68;2.10;;;;;;;;;;5028131;28;20046;-44
2021/05/06 06:16:01;;;;;;;7.00;5.85;;;;;;;;;;5026484;28;20084;-45
2021/05/06 06:18:37;;;;;;;9.63;6.03;;;;;;;;;;5023279;28;20458;-44
2021/05/06 06:21:13;;;;;;;4.57;2.80;;;;;;;;;;5025264;28;20493;-43
2021/05/06 06:23:40;;;;;;;5.97;3.08;;;;;;;;;;5026890;28;20030;-44
2021/05/06 06:26:06;;;;;;;3.10;1.92;;;;;;;;;;5025295;28;20042;-44
2021/05/06 06:28:41;;;;;;;5.53;1.90;;;;;;;;;;5028608;28;20381;-44
2021/05/06 06:31:14;;;;;;;7.20;2.95;;;;;;;;;;5028206;28;20045;-44
2021/05/06 06:33:40;;;;;;;7.30;2.15;;;;;;;;;;5020767;28;20126;-44
2021/05/06 06:36:07;;;;;;;6.30;2.58;;;;;;;;;;5024624;28;21211;-43
2021/05/06 06:38:33;;;;;;;3.10;1.60;;;;;;;;;;5029689;28;20164;-43
2021/05/06 06:41:00;;;;;;;5.25;1.92;;;;;;;;;;5023152;28;20030;-43
2021/05/06 06:43:26;;;;;;;3.17;1.65;;;;;;;;;;5016765;28;20748;-44
2021/05/06 06:45:52;;;;;;;1.55;1.35;;;;;;;;;;5029534;28;20551;-44
2021/05/06 06:48:19;;;;;;;5.45;1.30;;;;;;;;;;5027903;28;20107;-46
2021/05/06 06:50:46;;;;;;;2.38;1.17;;;;;;;;;;5030055;28;20041;-43
2021/05/06 06:53:13;;;;;;;3.40;1.10;;;;;;;;;;5023132;28;20521;-44
2021/05/06 06:55:40;;;;;;;8.93;1.38;;;;;;;;;;5013749;28;20044;-43
2021/05/06 06:58:25;;;;;;;3.92;1.15;;;;;;;;;;5027056;28;20397;-46
2021/05/06 07:00:52;;;;;;;1.25;0.85;;;;;;;;;;5021327;28;20124;-42
2021/05/06 07:03:18;;;;;;;4.50;1.10;;;;;;;;;;5013277;28;20038;-44
2021/05/06 07:05:44;;;;;;;4.65;1.60;;;;;;;;;;5027645;28;20462;-43
2021/05/06 07:08:26;;;;;;;2.88;1.10;;;;;;;;;;5026895;28;20038;-43
2021/05/06 07:10:53;;;;;;;2.42;0.90;;;;;;;;;;5027393;28;20371;-43
2021/05/06 07:13:20;;;;;;;5.80;0.98;;;;;;;;;;5021245;28;20047;-44
2021/05/06 07:15:47;;;;;;;7.22;1.10;;;;;;;;;;5018965;28;20030;-43
2021/05/06 07:18:14;;;;;;;7.40;1.52;;;;;;;;;;5030879;28;20030;-42
2021/05/06 07:20:45;;;;;;;3.03;0.93;;;;;;;;;;5031407;28;20049;-47
2021/05/06 07:23:12;;;;;;;2.72;0.90;;;;;;;;;;5032295;28;20071;-43
2021/05/06 07:25:42;;;;;;;3.70;0.90;;;;;;;;;;5032691;28;20124;-45
2021/05/06 07:28:13;;;;;;;1.10;1.00;;;;;;;;;;5033736;28;20382;-43
2021/05/06 07:30:42;;;;;;;2.35;0.90;;;;;;;;;;5027701;28;20046;-43
2021/05/06 07:33:11;;;;;;;2.65;1.10;;;;;;;;;;5031270;28;20042;-44
2021/05/06 07:35:40;;;;;;;1.67;1.10;;;;;;;;;;5031757;28;20041;-44
2021/05/06 07:38:10;;;;;;;2.50;0.90;;;;;;;;;;5030507;28;20052;-43
2021/05/06 07:40:39;;;;;;;2.65;0.80;;;;;;;;;;5025953;28;20133;-43
2021/05/06 07:43:07;;;;;;;2.83;0.80;;;;;;;;;;5027993;28;20042;-44
2021/05/06 07:45:34;;;;;;;1.70;0.80;;;;;;;;;;5033100;28;20095;-44
2021/05/06 07:48:03;;;;;;;2.25;0.73;;;;;;;;;;5031560;28;20115;-47
2021/05/06 07:50:34;;;;;;;2.50;1.00;;;;;;;;;;5029840;28;20414;-44
2021/05/06 07:53:14;;;;;;;1.52;0.88;;;;;;;;;;5017943;28;20092;-46
2021/05/06 07:55:44;;;;;;;5.03;0.90;;;;;;;;;;5029918;28;20378;-44
2021/05/06 07:58:10;;;;;;;2.42;0.90;;;;;;;;;;5030823;28;20038;-45
2021/05/06 08:00:36;;;;;;;2.55;1.15;;;;;;;;;;5031690;28;20045;-44
2021/05/06 08:03:04;;;;;;;2.67;0.80;;;;;;;;;;5030812;28;20080;-44
2021/05/06 08:05:31;;;;;;;2.67;1.15;;;;;;;;;;5029522;28;20041;-44
2021/05/06 08:07:57;;;;;;;1.75;1.00;;;;;;;;;;5027459;28;20425;-43
2021/05/06 08:10:24;;;;;;;6.18;1.25;;;;;;;;;;5019198;28;20389;-45
2021/05/06 08:12:50;;;;;;;1.67;0.90;;;;;;;;;;5030511;28;20103;-43
2021/05/06 08:15:16;;;;;;;1.33;0.95;;;;;;;;;;5020716;28;20029;-43
2021/05/06 08:17:43;;;;;;;1.70;1.10;;;;;;;;;;5032605;28;20030;-44
2021/05/06 08:20:11;;;;;;;3.47;0.90;;;;;;;;;;5027475;28;20045;-43
2021/05/06 08:22:37;;;;;;;1.58;1.00;;;;;;;;;;5022458;28;20034;-43
2021/05/06 08:25:05;;;;;;;4.03;0.90;;;;;;;;;;5030515;28;20061;-45
2021/05/06 08:27:32;;;;;;;4.18;0.90;;;;;;;;;;5029819;28;20116;-44
2021/05/06 08:29:59;;;;;;;2.65;0.95;;;;;;;;;;5031329;28;20048;-45
2021/05/06 08:32:25;;;;;;;6.15;1.70;;;;;;;;;;5025248;28;20072;-44
2021/05/06 08:34:51;;;;;;;1.58;1.48;;;;;;;;;;5031298;28;20116;-48
2021/05/06 08:37:18;;;;;;;2.75;0.90;;;;;;;;;;5027416;28;20037;-48
2021/05/06 08:39:45;;;;;;;1.50;0.90;;;;;;;;;;5016297;28;20066;-44
2021/05/06 08:42:13;;;;;;;1.35;0.82;;;;;;;;;;5030421;28;20029;-48
2021/05/06 08:44:40;;;;;;;4.50;0.80;;;;;;;;;;5031096;28;20041;-45
2021/05/06 08:47:12;;;;;;;1.77;0.80;;;;;;;;;;5028517;28;20410;-44
2021/05/06 08:49:39;;;;;;;;;;;;;;;;;;5028840;28;20425;-44
2021/05/06 08:52:09;;;;;;;3.30;0.90;;;;;;;;;;5016611;28;20001;-43
2021/05/06 08:54:36;;;;;;;3.08;1.15;;;;;;;;;;5030943;28;20053;-43
2021/05/06 08:57:03;;;;;;;1.65;0.93;;;;;;;;;;5029681;28;20037;-44
2021/05/06 08:59:30;;;;;;;2.55;0.90;;;;;;;;;;5030659;28;20049;-47
2021/05/06 09:01:57;;;;;;;1.90;0.90;;;;;;;;;;5025246;28;20454;-43
2021/05/06 09:04:25;;;;;;;2.58;0.80;;;;;;;;;;5013942;28;20457;-43
2021/05/06 09:06:55;;;;;;;6.88;1.17;;;;;;;;;;5028612;28;20045;-44
2021/05/06 09:09:23;;;;;;;3.45;0.80;;;;;;;;;;5027074;28;20030;-45
2021/05/06 09:11:53;;;;;;;3.00;0.82;;;;;;;;;;5024157;28;20100;-47
2021/05/06 09:14:33;;;;;;;2.17;0.90;;;;;;;;;;5025271;28;20037;-44
2021/05/06 09:17:00;;;;;;;2.25;0.88;;;;;;;;;;5028959;28;20049;-45
2021/05/06 09:19:27;;;;;;;2.45;0.90;;;;;;;;;;5025934;28;20073;-44
2021/05/06 09:21:55;;;;;;;3.25;0.90;;;;;;;;;;5028970;28;20053;-45
2021/05/06 09:24:24;;;;;;;1.00;0.90;;;;;;;;;;5031121;28;20049;-44
2021/05/06 09:26:53;;;;;;;2.55;0.80;;;;;;;;;;5028820;28;20099;-44
2021/05/06 09:29:31;;;;;;;3.00;1.25;;;;;;;;;;5012189;28;20042;-45
2021/05/06 09:32:14;;;;;;;2.00;0.70;;;;;;;;;;5029070;28;20041;-43
2021/05/06 09:34:41;;;;;;;1.75;1.08;;;;;;;;;;5020231;28;20478;-46
2021/05/06 09:37:08;;;;;;;1.80;0.90;;;;;;;;;;5015652;28;20042;-43
2021/05/06 09:39:36;;;;;;;2.67;1.00;;;;;;;;;;5023222;28;20053;-44
2021/05/06 09:42:11;;;;;;;1.73;1.00;;;;;;;;;;5025540;28;20046;-45
2021/05/06 09:44:53;;;;;;;1.20;0.80;;;;;;;;;;5029618;28;20037;-46
2021/05/06 09:47:20;;;;;;;6.30;1.10;;;;;;;;;;5027483;28;20062;-47
2021/05/06 09:49:50;;;;;;;3.20;0.98;;;;;;;;;;5029697;28;20038;-45
2021/05/06 09:52:17;;;;;;;2.95;0.80;;;;;;;;;;5024520;28;20049;-44
2021/05/06 09:54:47;;;;;;;3.10;0.90;;;;;;;;;;5015298;28;20095;-44
2021/05/06 09:57:36;;;;;;;0.90;0.80;;;;;;;;;;5027029;28;20445;-46
2021/05/06 10:00:31;;;;;;;3.47;1.10;;;;;;;;;;5023453;28;20103;-44
2021/05/06 10:03:08;;;;;;;3.72;0.93;;;;;;;;;;5013201;28;20055;-42
2021/05/06 10:05:36;;;;;;;3.22;1.15;;;;;;;;;;5027750;28;20518;-45
2021/05/06 10:08:02;;;;;;;2.17;1.00;;;;;;;;;;5024642;28;20100;-47
2021/05/06 10:10:29;;;;;;;3.05;0.90;;;;;;;;;;5024886;28;20390;-44
2021/05/06 10:12:56;;;;;;;5.38;1.35;;;;;;;;;;5024268;28;20084;-45
2021/05/06 10:15:22;;;;;;;2.35;1.42;;;;;;;;;;5010381;28;20037;-46
2021/05/06 10:17:50;;;;;;;1.42;0.90;;;;;;;;;;5027441;28;20103;-45
2021/05/06 10:20:17;;;;;;;2.38;0.90;;;;;;;;;;5025719;28;20490;-43
2021/05/06 10:22:45;;;;;;;4.13;1.10;;;;;;;;;;5026338;28;20481;-44
2021/05/06 10:25:11;;;;;;;3.47;0.90;;;;;;;;;;5024848;28;20056;-47
2021/05/06 10:27:41;;;;;;;1.77;1.10;;;;;;;;;;5026674;28;20513;-42
2021/05/06 10:30:09;;;;;;;2.72;0.90;;;;;;;;;;5024970;28;20084;-45
2021/05/06 10:32:35;;;;;;;4.25;0.93;;;;;;;;;;5019354;28;20045;-46
2021/05/06 10:35:06;;;;;;;1.83;1.10;;;;;;;;;;5024733;28;20048;-45
2021/05/06 10:37:33;;;;;;;2.45;0.90;;;;;;;;;;5026453;28;20049;-44
2021/05/06 10:40:00;;;;;;;3.08;0.90;;;;;;;;;;5024965;28;20065;-45
2021/05/06 10:42:27;;;;;;;2.05;0.85;;;;;;;;;;5025449;28;20037;-43
2021/05/06 10:44:54;;;;;;;1.95;1.00;;;;;;;;;;5035346;28;20465;-45
2021/05/06 10:47:42;;;;;;;1.85;0.90;;;;;;;;;;5029787;28;20046;-46
2021/05/06 10:50:08;;;;;;;4.25;0.90;;;;;;;;;;5030112;28;20047;-44
2021/05/06 10:52:40;;;;;;;2.38;0.88;;;;;;;;;;5024988;28;20041;-45
2021/05/06 10:55:10;;;;;;;1.00;0.73;;;;;;;;;;5029509;28;20528;-45
2021/05/06 10:57:37;;;;;;;1.27;0.73;;;;;;;;;;5033009;28;20468;-45
2021/05/06 11:00:10;;;;;;;2.58;0.80;;;;;;;;;;5030569;28;20124;-43
2021/05/06 11:02:39;;;;;;;2.53;1.40;;;;;;;;;;5025738;28;20041;-44
2021/05/06 11:05:16;;;;;;;2.70;0.90;;;;;;;;;;5033833;28;20049;-45
2021/05/06 11:08:02;;;;;;;2.15;0.80;;;;;;;;;;5025394;28;20128;-44
2021/05/06 11:10:29;;;;;;;1.02;0.70;;;;;;;;;;5026856;28;20561;-45
2021/05/06 11:12:56;;;;;;;1.13;0.80;;;;;;;;;;5028622;28;20047;-44
2021/05/06 11:15:23;;;;;;;0.98;0.80;;;;;;;;;;5026995;28;20068;-48
2021/05/06 11:17:49;;;;;;;1.63;0.80;;;;;;;;;;5029083;28;20096;-47
2021/05/06 11:20:16;;;;;;;7.15;1.35;;;;;;;;;;5024852;28;20037;-48
2021/05/06 11:23:04;;;;;;;1.95;0.80;;;;;;;;;;5015067;28;20083;-43
2021/05/06 11:25:37;;;;;;;1.13;0.63;;;;;;;;;;5028772;28;20084;-44
2021/05/06 11:28:04;;;;;;;1.85;0.80;;;;;;;;;;5028047;28;20049;-44
2021/05/06 11:30:47;;;;;;;1.13;0.70;;;;;;;;;;5026424;28;20050;-45
2021/05/06 11:33:19;;;;;;;0.80;0.70;;;;;;;;;;5024837;28;20033;-44
2021/05/06 11:36:04;;;;;;;2.45;0.80;;;;;;;;;;5021598;28;20072;-45
2021/05/06 11:38:39;;;;;;;2.67;0.80;;;;;;;;;;5027980;28;20103;-45
2021/05/06 11:41:13;;;;;;;7.20;1.00;;;;;;;;;;5026868;28;20494;-44
2021/05/06 11:43:51;;;;;;;1.33;0.60;;;;;;;;;;5025848;28;20489;-47
2021/05/06 11:46:19;;;;;;;2.80;0.60;;;;;;;;;;5021177;28;20053;-47
2021/05/06 11:48:47;;;;;;;3.08;0.70;;;;;;;;;;5027338;28;20038;-46
2021/05/06 11:51:43;;;;;;;2.70;0.65;;;;;;;;;;5028662;28;20037;-44
2021/05/06 11:54:09;;;;;;;0.77;0.65;;;;;;;;;;5024549;28;20065;-46
2021/05/06 11:56:36;;;;;;;2.20;0.60;;;;;;;;;;5023998;28;20065;-44
2021/05/06 11:59:04;;;;;;;1.38;0.63;;;;;;;;;;5025825;28;20136;-43
2021/05/06 12:01:31;;;;;;;2.65;0.70;;;;;;;;;;5022551;28;20057;-46
2021/05/06 12:03:57;;;;;;;0.93;0.60;;;;;;;;;;5013689;28;20085;-44
2021/05/06 12:06:36;;;;;;;2.10;0.60;;;;;;;;;;5025400;28;20147;-45
2021/05/06 12:09:04;;;;;;;0.80;0.60;;;;;;;;;;5021651;28;20048;-43
2021/05/06 12:11:33;;;;;;;2.45;0.60;;;;;;;;;;5029475;28;20045;-44
2021/05/06 12:14:00;;;;;;;0.85;0.60;;;;;;;;;;5026975;28;20226;-44
2021/05/06 12:16:27;;;;;;;3.72;0.70;;;;;;;;;;5025188;28;20727;-43
2021/05/06 12:19:01;;;;;;;3.25;0.60;;;;;;;;;;5026761;28;20045;-43
2021/05/06 12:21:38;;;;;;;1.08;0.50;;;;;;;;;;5015434;28;20049;-44
2021/05/06 12:24:05;;;;;;;3.70;0.68;;;;;;;;;;5026241;28;20076;-45
2021/05/06 12:26:32;;;;;;;3.15;1.02;;;;;;;;;;5026166;28;20037;-43
2021/05/06 12:28:59;;;;;;;1.23;0.60;;;;;;;;;;5025105;28;20506;-44
2021/05/06 12:31:25;;;;;;;2.67;0.68;;;;;;;;;;5024992;28;20115;-43
2021/05/06 12:33:52;;;;;;;1.63;0.60;;;;;;;;;;5029768;28;20033;-45
2021/05/06 12:36:19;;;;;;;1.50;0.60;;;;;;;;;;5031737;28;20038;-43
2021/05/06 12:38:48;;;;;;;0.63;0.60;;;;;;;;;;5031441;28;20124;-42
2021/05/06 12:41:15;;;;;;;1.15;0.80;;;;;;;;;;5019260;28;20045;-44
2021/05/06 12:43:49;;;;;;;1.50;0.60;;;;;;;;;;5027302;28;20077;-43
2021/05/06 12:46:19;;;;;;;1.95;0.60;;;;;;;;;;5027956;28;20060;-46
2021/05/06 12:48:53;;;;;;;2.00;0.60;;;;;;;;;;5035600;28;20053;-43
2021/05/06 12:51:25;;;;;;;0.82;0.60;;;;;;;;;;5030361;28;20045;-43
2021/05/06 12:53:59;;;;;;;6.40;5.97;;;;;;;;;;5027063;28;20120;-46
2021/05/06 12:56:26;;;;;;;0.73;0.57;;;;;;;;;;5027861;28;20096;-45
2021/05/06 12:58:53;;;;;;;0.68;0.50;;;;;;;;;;5027050;28;20037;-45
2021/05/06 13:01:28;;;;;;;1.83;0.55;;;;;;;;;;5030922;28;20041;-46
2021/05/06 13:03:57;;;;;;;0.63;0.52;;;;;;;;;;5029558;28;20500;-46
2021/05/06 13:06:29;;;;;;;1.27;0.70;;;;;;;;;;5019398;28;20048;-46
2021/05/06 13:08:58;;;;;;;0.82;0.50;;;;;;;;;;5030615;28;20115;-48
2021/05/06 13:11:24;;;;;;;1.98;0.90;;;;;;;;;;5028909;28;20375;-49
2021/05/06 13:13:52;;;;;;;0.98;0.60;;;;;;;;;;5031126;28;20030;-45
2021/05/06 13:16:38;;;;;;;1.85;0.70;;;;;;;;;;5028028;28;20673;-45
2021/05/06 13:19:06;;;;;;;1.42;0.65;;;;;;;;;;5012036;28;20497;-46
2021/05/06 13:21:33;;;;;;;0.75;0.60;;;;;;;;;;5025904;28;20360;-46
2021/05/06 13:24:01;;;;;;;2.05;0.70;;;;;;;;;;5029330;28;20048;-46
2021/05/06 13:26:38;;;;;;;2.88;0.65;;;;;;;;;;5029928;28;20049;-44
2021/05/06 13:29:05;;;;;;;0.63;0.63;;;;;;;;;;5026289;28;20452;-47
2021/05/06 13:31:32;;;;;;;0.60;0.60;;;;;;;;;;5014805;28;20486;-45
2021/05/06 13:34:18;;;;;;;0.50;0.50;;;;;;;;;;5030474;28;20524;-46
2021/05/06 13:36:45;;;;;;;0.75;0.60;;;;;;;;;;5022768;28;20036;-46
2021/05/06 13:39:13;;;;;;;1.10;0.60;;;;;;;;;;5030761;28;20040;-45
2021/05/06 13:41:41;;;;;;;0.88;0.50;;;;;;;;;;5025738;28;20072;-45
2021/05/06 13:44:08;;;;;;;4.97;0.60;;;;;;;;;;5014165;28;20034;-47
2021/05/06 13:46:43;;;;;;;2.42;0.70;;;;;;;;;;5029231;28;20041;-47
2021/05/06 13:49:09;;;;;;;3.03;1.05;;;;;;;;;;5028574;28;20050;-44
2021/05/06 13:51:36;;;;;;;1.75;0.60;;;;;;;;;;5030364;28;20034;-45
2021/05/06 13:54:02;;;;;;;0.50;0.50;;;;;;;;;;5026615;28;20064;-45
2021/05/06 13:56:29;;;;;;;0.52;0.50;;;;;;;;;;5028772;28;20041;-44
2021/05/06 13:58:55;;;;;;;0.60;0.60;;;;;;;;;;5030432;28;20465;-47
2021/05/06 14:01:21;;;;;;;1.15;0.50;;;;;;;;;;5028565;28;20389;-47
2021/05/06 14:03:47;;;;;;;0.60;0.60;;;;;;;;;;5019920;28;20126;-44
2021/05/06 14:06:14;;;;;;;2.80;0.60;;;;;;;;;;5022744;28;20045;-46
2021/05/06 14:08:40;;;;;;;0.60;0.60;;;;;;;;;;5030668;28;20551;-47
2021/05/06 14:11:06;;;;;;;0.50;0.50;;;;;;;;;;5026905;28;20485;-45
2021/05/06 14:13:34;;;;;;;0.63;0.55;;;;;;;;;;5023647;28;20362;-48
2021/05/06 14:16:01;;;;;;;0.50;0.50;;;;;;;;;;5024571;28;20073;-44
2021/05/06 14:18:28;;;;;;;0.50;0.50;;;;;;;;;;5021401;28;20056;-46
2021/05/06 14:21:00;;;;;;;1.30;0.50;;;;;;;;;;5029394;28;20061;-46
2021/05/06 14:23:27;;;;;;;0.50;0.50;;;;;;;;;;5026178;28;20053;-47
2021/05/06 14:25:53;;;;;;;1.85;0.60;;;;;;;;;;5022187;28;20041;-45
2021/05/06 14:28:20;;;;;;;0.60;0.60;;;;;;;;;;5028725;28;20068;-44
2021/05/06 14:30:46;;;;;;;0.50;0.50;;;;;;;;;;5028483;28;20034;-45
2021/05/06 14:33:12;;;;;;;0.75;0.50;;;;;;;;;;5028170;28;20697;-46
2021/05/06 14:35:39;;;;;;;0.50;0.50;;;;;;;;;;5029014;28;20441;-45
2021/05/06 14:38:09;;;;;;;0.60;0.60;;;;;;;;;;5011165;28;20091;-44
2021/05/06 14:40:40;;;;;;;2.05;0.50;;;;;;;;;;5021521;28;20088;-45
2021/05/06 14:43:07;;;;;;;1.75;0.60;;;;;;;;;;5026065;28;20112;-44
2021/05/06 14:45:36;;;;;;;0.82;0.55;;;;;;;;;;5018690;28;20038;-44
2021/05/06 14:48:04;;;;;;;2.30;0.50;;;;;;;;;;5025122;28;20061;-45
2021/05/06 14:50:31;;;;;;;0.50;0.50;;;;;;;;;;5027777;28;20041;-45
2021/05/06 14:52:57;;;;;;;1.33;0.60;;;;;;;;;;5023676;28;20038;-46
2021/05/06 14:55:24;;;;;;;0.50;0.50;;;;;;;;;;5016738;28;20042;-44
2021/05/06 14:57:51;;;;;;;1.60;0.50;;;;;;;;;;5022028;28;20038;-45
2021/05/06 15:00:18;;;;;;;1.00;0.65;;;;;;;;;;5022368;28;20060;-47
2021/05/06 15:02:44;;;;;;;0.95;0.60;;;;;;;;;;5013739;28;20040;-44
2021/05/06 15:05:12;;;;;;;0.50;0.50;;;;;;;;;;5027777;28;20124;-45
2021/05/06 15:07:38;;;;;;;1.80;0.60;;;;;;;;;;5024048;28;20042;-45
2021/05/06 15:10:05;;;;;;;0.60;0.60;;;;;;;;;;5026587;28;20034;-45
2021/05/06 15:12:32;;;;;;;0.50;0.50;;;;;;;;;;5023240;28;20498;-45
2021/05/06 15:14:59;;;;;;;0.50;0.50;;;;;;;;;;5028003;28;20045;-47
2021/05/06 15:17:25;;;;;;;1.17;0.50;;;;;;;;;;5027646;28;20048;-46
2021/05/06 15:19:53;;;;;;;0.40;0.40;;;;;;;;;;5027316;28;20038;-45
2021/05/06 15:22:20;;;;;;;5.20;0.60;;;;;;;;;;5027006;28;20726;-44
2021/05/06 15:24:52;;;;;;;1.50;0.50;;;;;;;;;;5019762;28;20033;-45
2021/05/06 15:27:19;;;;;;;0.98;0.98;;;;;;;;;;5028685;28;20605;-44
2021/05/06 15:29:46;;;;;;;0.50;0.50;;;;;;;;;;5025234;28;20103;-45
2021/05/06 15:32:12;;;;;;;2.00;0.55;;;;;;;;;;5011195;28;20046;-45
2021/05/06 15:34:40;;;;;;;0.65;0.43;;;;;;;;;;5025922;28;20034;-45
2021/05/06 15:37:07;;;;;;;0.82;0.70;;;;;;;;;;5022586;28;20497;-45
2021/05/06 15:39:37;;;;;;;0.77;0.60;;;;;;;;;;5024168;28;20045;-45
2021/05/06 15:42:03;;;;;;;2.47;0.60;;;;;;;;;;5027011;28;20129;-45
2021/05/06 15:44:30;;;;;;;1.38;0.70;;;;;;;;;;5049339;28;20059;-47
2021/05/06 15:46:59;;;;;;;1.20;0.50;;;;;;;;;;5032087;28;20121;-47
2021/05/06 15:49:31;;;;;;;9.20;1.05;;;;;;;;;;5031487;28;20046;-45
2021/05/06 15:51:57;;;;;;;30.98;7.22;;;;;;;;;;5032607;28;20041;-44
2021/05/06 15:54:24;;;;;;;14.23;2.00;;;;;;;;;;5029980;28;20517;-45
2021/05/06 15:56:50;;;;;;;0.70;0.45;;;;;;;;;;5033341;28;20545;-46
2021/05/06 15:59:17;;;;;;;0.52;0.52;;;;;;;;;;5027774;28;20080;-48
2021/05/06 16:01:44;;;;;;;4.28;0.80;;;;;;;;;;5018120;28;20405;-44
2021/05/06 16:04:11;;;;;;;2.45;0.65;;;;;;;;;;5030544;28;20052;-43
2021/05/06 16:06:38;;;;;;;2.88;0.70;;;;;;;;;;5021664;28;20088;-45
2021/05/06 16:09:04;;;;;;;2.00;0.50;;;;;;;;;;5032496;28;20045;-45
2021/05/06 16:11:31;;;;;;;0.50;0.50;;;;;;;;;;5028926;28;20080;-44
2021/05/06 16:13:58;;;;;;;0.60;0.60;;;;;;;;;;5029541;28;20030;-44
2021/05/06 16:16:25;;;;;;;5.75;1.65;;;;;;;;;;5032166;28;20033;-44
2021/05/06 16:18:51;;;;;;;12.88;1.77;;;;;;;;;;5023643;28;20112;-45
2021/05/06 16:21:17;;;;;;;3.65;0.60;;;;;;;;;;5023869;28;20108;-44
2021/05/06 16:23:44;;;;;;;8.55;1.10;;;;;;;;;;5024769;28;20049;-45
2021/05/06 16:26:11;;;;;;;0.63;0.63;;;;;;;;;;5032374;28;20452;-46
2021/05/06 16:28:38;;;;;;;1.90;0.50;;;;;;;;;;5026770;28;20048;-48
2021/05/06 16:31:04;;;;;;;3.40;0.60;;;;;;;;;;5024300;28;20498;-48
2021/05/06 16:33:35;;;;;;;3.33;0.60;;;;;;;;;;5026439;28;20608;-47
2021/05/06 16:38:30;;;;;;;0.68;0.60;;;;;;;;;;5031398;28;20045;-45
2021/05/06 16:41:05;;;;;;;0.65;0.60;;;;;;;;;;5029512;28;20038;-45
2021/05/06 16:43:44;;;;;;;0.60;0.60;;;;;;;;;;5030389;28;20059;-46
2021/05/06 16:46:14;;;;;;;0.73;0.60;;;;;;;;;;5024667;28;20042;-44
2021/05/06 16:48:41;;;;;;;2.30;0.57;;;;;;;;;;5029915;28;20561;-44
2021/05/06 16:51:07;;;;;;;6.18;0.90;;;;;;;;;;5013707;28;20049;-45
2021/05/06 16:53:45;;;;;;;0.60;0.60;;;;;;;;;;5024049;28;20496;-44
2021/05/06 16:56:13;;;;;;;1.48;0.60;;;;;;;;;;5017031;28;20045;-44
2021/05/06 16:58:39;;;;;;;0.60;0.60;;;;;;;;;;5018635;28;20394;-43
2021/05/06 17:01:05;;;;;;;5.10;0.60;;;;;;;;;;5023615;28;20494;-44
2021/05/06 17:03:31;;;;;;;0.70;0.60;;;;;;;;;;5030231;28;20073;-44
2021/05/06 17:05:58;;;;;;;0.98;0.70;;;;;;;;;;5029097;28;20048;-43
2021/05/06 17:08:25;;;;;;;1.10;0.60;;;;;;;;;;5029973;28;20041;-44
2021/05/06 17:10:52;;;;;;;0.60;0.60;;;;;;;;;;5030317;28;20498;-47
2021/05/06 17:13:20;;;;;;;2.30;0.68;;;;;;;;;;5023996;28;20037;-47
2021/05/06 17:16:00;;;;;;;1.13;0.77;;;;;;;;;;5031104;28;20044;-49
2021/05/06 17:18:26;;;;;;;0.65;0.60;;;;;;;;;;5028159;28;20034;-50
2021/05/06 17:20:53;;;;;;;0.65;0.65;;;;;;;;;;5028870;28;20049;-47
2021/05/06 17:23:19;;;;;;;3.47;0.70;;;;;;;;;;5031543;28;20042;-47
2021/05/06 17:25:46;;;;;;;0.80;0.80;;;;;;;;;;5029315;28;20041;-50
2021/05/06 17:28:13;;;;;;;2.15;0.70;;;;;;;;;;5019508;28;20042;-50
2021/05/06 17:30:39;;;;;;;0.63;0.63;;;;;;;;;;5026148;28;20122;-50
2021/05/06 17:33:05;;;;;;;2.38;0.70;;;;;;;;;;5036181;28;20045;-50
2021/05/06 17:35:32;;;;;;;0.60;0.60;;;;;;;;;;5028816;28;20099;-48
2021/05/06 17:38:00;;;;;;;0.93;0.85;;;;;;;;;;5027058;28;20112;-48
2021/05/06 17:40:26;;;;;;;0.70;0.60;;;;;;;;;;5030629;28;20040;-47
2021/05/06 17:42:52;;;;;;;0.60;0.60;;;;;;;;;;5034527;28;20124;-46
2021/05/06 17:45:19;;;;;;;1.40;0.60;;;;;;;;;;5020066;28;20041;-48
2021/05/06 17:47:45;;;;;;;1.50;0.70;;;;;;;;;;5028789;28;20048;-47
2021/05/06 17:50:12;;;;;;;1.15;1.05;;;;;;;;;;5027951;28;20132;-46
2021/05/06 17:52:38;;;;;;;2.55;0.80;;;;;;;;;;5028997;28;20370;-46
2021/05/06 17:55:04;;;;;;;2.67;0.80;;;;;;;;;;5027442;28;20430;-49
2021/05/06 17:57:31;;;;;;;1.58;0.80;;;;;;;;;;5021725;28;20584;-47
2021/05/06 17:59:57;;;;;;;1.23;1.10;;;;;;;;;;5027608;28;20397;-46
2021/05/06 18:02:23;;;;;;;1.23;1.13;;;;;;;;;;5028900;28;20480;-46
2021/05/06 18:04:51;;;;;;;1.55;0.70;;;;;;;;;;5023926;28;20045;-48
2021/05/06 18:07:17;;;;;;;0.82;0.70;;;;;;;;;;5020619;28;20038;-47
2021/05/06 18:09:55;;;;;;;0.85;0.70;;;;;;;;;;5016468;28;20447;-50
2021/05/06 18:12:21;;;;;;;1.00;0.80;;;;;;;;;;5024744;28;20667;-49